This is the latest recevied weather packets stored in our database for station/object S56OA-13. If no packets are shown the sender has not sent any weather packets the latest 10 day(s).
| Time | Temp. | Humidity | Pressure | Rain* | Wind** | Luminosity | Snow |
|---|---|---|---|---|---|---|---|
| 1788129858 | 17.78° C | 42% | 870.3 hPa | - | - | - | - |
| 1788128057 | 18.33° C | 42% | 870.1 hPa | - | - | - | - |
| 1788126256 | 17.78° C | 42% | 868.9 hPa | - | - | - | - |
| 1788124442 | 17.22° C | 43% | 868.6 hPa | - | - | - | - |
| 1788120820 | 17.78° C | 43% | 869.5 hPa | - | - | - | - |
| 1788119019 | 17.78° C | 43% | 870.1 hPa | - | - | - | - |
| 1788117217 | 18.33° C | 43% | 871.7 hPa | - | - | - | - |
| 1788115416 | 19.44° C | 43% | 875.4 hPa | - | - | - | - |
| 1788113615 | 20.56° C | 44% | 880.2 hPa | - | - | - | - |
| 1788111814 | 23.33° C | 44% | 889.7 hPa | - | - | - | - |
| 1788110013 | 27.22° C | 44% | 905.1 hPa | - | - | - | - |
| 1788108211 | 30.56° C | 44% | 919.7 hPa | - | - | - | - |
| 1788106410 | 33.33° C | 43% | 929.1 hPa | - | - | - | - |
| 1788104608 | 34.44° C | 43% | 934.4 hPa | - | - | - | - |
| 1788102807 | 35.56° C | 43% | 940.8 hPa | - | - | - | - |
| 1788101006 | 36.11° C | 42% | 940.3 hPa | - | - | - | - |
| 1788099204 | 35.56° C | 43% | 940.3 hPa | - | - | - | - |
| 1788097403 | 35.56° C | 43% | 939.2 hPa | - | - | - | - |
| 1788095601 | 33.89° C | 43% | 933.3 hPa | - | - | - | - |
| 1788093800 | 33.89° C | 43% | 932 hPa | - | - | - | - |
| 1788091998 | 33.33° C | 43% | 930.1 hPa | - | - | - | - |
| 1788090196 | 32.78° C | 43% | 927 hPa | - | - | - | - |
| 1788088396 | 32.22° C | 43% | 925.4 hPa | - | - | - | - |
| 1788086594 | 31.67° C | 43% | 920.9 hPa | - | - | - | - |
| 1788084793 | 31.11° C | 42% | 919.1 hPa | - | - | - | - |
* Rain since midnight (hover to see other rain measurements)
** Current wind speed in m/s (hover to see current wind gust speed)